createdAt,value
2022-10-12T00:00:59.848Z,-27.8
2022-10-12T00:03:01.147Z,-27.9
2022-10-12T00:05:02.807Z,-27.8
2022-10-12T00:07:04.240Z,-28
2022-10-12T00:09:05.387Z,-27.6
2022-10-12T00:11:06.422Z,-27.9
2022-10-12T00:13:07.776Z,-27.8
2022-10-12T00:15:08.767Z,-28
2022-10-12T00:17:10.571Z,-27.8
2022-10-12T00:19:11.634Z,-27.8
2022-10-12T00:21:13.463Z,-27.8
2022-10-12T00:23:14.804Z,-27.8
2022-10-12T00:25:16.466Z,-27.9
2022-10-12T00:27:17.698Z,-27.8
2022-10-12T00:29:19.273Z,-27.9
2022-10-12T00:31:20.723Z,-27.9
2022-10-12T00:33:21.730Z,-27.9
2022-10-12T00:35:23.371Z,-27.9
2022-10-12T00:37:25.115Z,-27.9
2022-10-12T00:39:27.030Z,-27.8
2022-10-12T00:41:28.664Z,-27.7
2022-10-12T00:43:30.654Z,-27.7
2022-10-12T00:45:32.181Z,-27.9
2022-10-12T00:47:33.790Z,-27.7
2022-10-12T00:49:35.658Z,-27.9
2022-10-12T00:55:40.024Z,-27.8
2022-10-12T00:57:46.005Z,-28.1
2022-10-12T00:59:42.539Z,-27.9
2022-10-12T01:01:43.693Z,-27.7
2022-10-12T01:03:44.885Z,-27.7
2022-10-12T01:05:46.065Z,-27.9
2022-10-12T01:09:49.067Z,-27.7
2022-10-12T01:11:50.195Z,-27.7
2022-10-12T01:13:51.491Z,-27.7
2022-10-12T01:15:52.866Z,-27.9
2022-10-12T01:17:53.842Z,-27.6
2022-10-12T01:19:57.182Z,-28
2022-10-12T01:21:56.694Z,-27.8
2022-10-12T01:23:58.344Z,-28
2022-10-12T01:26:00.214Z,-27.8
2022-10-12T01:28:01.794Z,-27.6
2022-10-12T01:30:03.449Z,-27.8
2022-10-12T01:32:04.711Z,-27.9
2022-10-12T01:34:06.205Z,-28
2022-10-12T01:36:07.495Z,-27.9
2022-10-12T01:38:09.306Z,-27.8
2022-10-12T01:40:11.033Z,-27.5
2022-10-12T01:42:12.080Z,-28
2022-10-12T01:44:13.141Z,-27.6
2022-10-12T01:46:14.241Z,-28
2022-10-12T01:48:16.056Z,-27.8
2022-10-12T01:50:17.718Z,-28.3
2022-10-12T01:52:18.827Z,-27.9
2022-10-12T01:54:20.426Z,-27.9
2022-10-12T01:56:22.130Z,-27.6
2022-10-12T01:58:23.762Z,-27.8
2022-10-12T02:00:24.824Z,-27.9
2022-10-12T02:02:26.772Z,-27.9
2022-10-12T02:04:28.534Z,-28
2022-10-12T02:08:31.361Z,-27.8
2022-10-12T02:10:32.827Z,-28
2022-10-12T02:12:34.213Z,-27.8
2022-10-12T02:14:35.512Z,-27.5
2022-10-12T02:16:36.665Z,-28
2022-10-12T02:18:38.099Z,-27.7
2022-10-12T02:20:39.372Z,-27.8
2022-10-12T02:22:40.768Z,-27.9
2022-10-12T02:24:41.841Z,-27.8
2022-10-12T02:26:43.339Z,-27.7
2022-10-12T02:30:46.617Z,-27.9
2022-10-12T02:32:47.876Z,-28.1
2022-10-12T02:34:49.146Z,-27.7
2022-10-12T02:36:50.805Z,-27.8
2022-10-12T02:38:52.660Z,-27.9
2022-10-12T02:40:54.497Z,-27.8
2022-10-12T02:43:09.690Z,-28
2022-10-12T02:44:57.492Z,-28
2022-10-12T02:46:58.761Z,-27.9
2022-10-12T02:53:03.388Z,-27.7
2022-10-12T02:55:04.464Z,-27.9
2022-10-12T02:57:06.257Z,-27.8
2022-10-12T02:59:07.586Z,-27.6
2022-10-12T03:01:08.866Z,-27.8
2022-10-12T03:03:10.185Z,-27.6
2022-10-12T03:07:13.229Z,-27.9
2022-10-12T03:09:15.118Z,-27.8
2022-10-12T03:11:16.471Z,-28.1
2022-10-12T03:13:18.299Z,-28
2022-10-12T03:15:20.208Z,-27.9
2022-10-12T03:17:21.803Z,-27.8
2022-10-12T03:19:22.849Z,-27.8
2022-10-12T03:22:16.013Z,-28.2
2022-10-12T03:24:17.683Z,-27.9
2022-10-12T03:26:18.941Z,-27.9
2022-10-12T03:28:20.902Z,-27.9
2022-10-12T03:30:22.821Z,-27.9
2022-10-12T03:32:24.780Z,-28.2
2022-10-12T03:34:26.249Z,-27.6
2022-10-12T03:36:28.174Z,-27.9
2022-10-12T03:38:30.053Z,-27.9
2022-10-12T03:40:31.920Z,-27.9
2022-10-12T03:44:35.171Z,-27.7
2022-10-12T03:46:37.074Z,-27.8
2022-10-12T03:48:38.330Z,-27.6
2022-10-12T03:50:39.825Z,-27.7
2022-10-12T03:56:43.976Z,-27.9
2022-10-12T03:58:45.430Z,-27.9
2022-10-12T04:00:46.457Z,-27.8
2022-10-12T04:02:47.546Z,-27.9
2022-10-12T04:04:49.171Z,-28.2
2022-10-12T04:06:50.984Z,-28.1
2022-10-12T04:08:52.875Z,-28.3
2022-10-12T04:10:54.808Z,-27.9
2022-10-12T04:12:56.281Z,-27.8
2022-10-12T04:14:57.578Z,-27.9
2022-10-12T04:16:58.717Z,-27.9
2022-10-12T04:18:59.930Z,-27.9
2022-10-12T04:21:01.090Z,-27.9
2022-10-12T04:23:02.144Z,-27.8
2022-10-12T04:25:03.916Z,-27.9
2022-10-12T04:27:05.246Z,-28.2
2022-10-12T04:29:07.090Z,-27.9
2022-10-12T04:31:08.644Z,-27.8
2022-10-12T04:33:10.441Z,-28
2022-10-12T04:35:12.015Z,-28.2
2022-10-12T04:37:13.014Z,-27.9
2022-10-12T04:39:14.654Z,-28.2
2022-10-12T04:43:17.531Z,-27.9
2022-10-12T04:45:19.023Z,-28
2022-10-12T04:47:20.214Z,-28
2022-10-12T04:49:22.165Z,-28
2022-10-12T04:51:23.962Z,-27.7
2022-10-12T04:53:25.911Z,-27.8
2022-10-12T04:55:27.104Z,-28.4
2022-10-12T04:57:28.170Z,-27.9
2022-10-12T04:59:29.879Z,-28
2022-10-12T05:01:31.590Z,-27.9
2022-10-12T05:05:34.847Z,-28.3
2022-10-12T05:07:36.480Z,-28
2022-10-12T05:09:37.620Z,-27.9
2022-10-12T05:11:38.925Z,-27.7
2022-10-12T05:13:40.242Z,-28
2022-10-12T05:15:41.315Z,-27.9
2022-10-12T05:17:42.463Z,-28.1
2022-10-12T05:19:44.013Z,-27.9
2022-10-12T05:21:45.843Z,-28
2022-10-12T05:23:47.638Z,-28.2
2022-10-12T05:25:48.836Z,-27.7
2022-10-12T05:27:50.445Z,-28
2022-10-12T05:29:51.765Z,-28.2
2022-10-12T05:31:53.575Z,-27.8
2022-10-12T05:33:55.434Z,-27.8
2022-10-12T05:35:56.776Z,-28.3
2022-10-12T05:37:58.431Z,-28.2
2022-10-12T05:42:01.686Z,-27.9
2022-10-12T05:44:03.228Z,-28.2
2022-10-12T05:48:06.391Z,-28.2
2022-10-12T05:50:08.264Z,-28.2
2022-10-12T05:52:09.381Z,-28.3
2022-10-12T05:54:11.319Z,-28.2
2022-10-12T05:58:14.539Z,-28.3
2022-10-12T06:00:15.530Z,-28.3
2022-10-12T06:02:17.552Z,-28.2
2022-10-12T06:04:19.204Z,-28.2
2022-10-12T06:06:20.588Z,-28.3
2022-10-12T06:08:22.228Z,-28.5
2022-10-12T06:10:27.691Z,-28.3
2022-10-12T06:12:24.801Z,-28.5
2022-10-12T06:14:26.539Z,-28.3
2022-10-12T06:18:29.666Z,-28.7
2022-10-12T06:20:31.114Z,-28.6
2022-10-12T06:24:33.946Z,-28.3
2022-10-12T06:26:35.509Z,-28.4
2022-10-12T06:28:36.952Z,-28.5
2022-10-12T06:30:38.195Z,-28.4
2022-10-12T06:36:41.637Z,-28.7
2022-10-12T06:38:43.498Z,-28.3
2022-10-12T06:40:44.658Z,-28.7
2022-10-12T06:42:46.044Z,-28.5
2022-10-12T06:44:47.204Z,-28.5
2022-10-12T06:46:49.113Z,-28.4
2022-10-12T06:48:51.013Z,-28.5
2022-10-12T06:50:52.579Z,-28.5
2022-10-12T06:52:53.560Z,-28.7
2022-10-12T06:54:54.897Z,-28.4
2022-10-12T06:56:58.669Z,-28.6
2022-10-12T06:58:58.238Z,-27.3
2022-10-12T07:01:00.033Z,-22.8
2022-10-12T07:03:01.767Z,-19.1
2022-10-12T07:05:03.056Z,-5.3
2022-10-12T07:07:04.570Z,-3.9
2022-10-12T07:09:06.035Z,0.2
2022-10-12T07:11:07.944Z,0.7
2022-10-12T07:13:09.272Z,3
2022-10-12T07:15:10.893Z,4.9
2022-10-12T07:17:12.111Z,8.8
2022-10-12T07:19:13.999Z,17.79
2022-10-12T07:21:15.324Z,39.5
2022-10-12T07:23:16.935Z,35.09
2022-10-12T07:25:17.936Z,40.59
2022-10-12T07:27:19.474Z,24.1
2022-10-12T07:29:20.863Z,19.2
2022-10-12T07:35:25.168Z,0.8
2022-10-12T07:37:26.682Z,1.4
2022-10-12T07:39:27.865Z,2.6
2022-10-12T07:41:29.776Z,3.7
2022-10-12T07:43:30.789Z,11.9
2022-10-12T07:45:32.660Z,27.5
2022-10-12T07:47:34.509Z,21.8
2022-10-12T07:49:35.782Z,17.1
2022-10-12T07:51:37.529Z,26
2022-10-12T07:55:40.961Z,22.1
2022-10-12T07:57:42.183Z,20.4
2022-10-12T07:59:43.582Z,19.7
2022-10-12T08:01:44.693Z,40.59
2022-10-12T08:03:45.944Z,81.9
2022-10-12T08:05:47.398Z,80.9
2022-10-12T08:07:48.883Z,80.3
2022-10-12T08:09:50.250Z,79.69
2022-10-12T08:11:51.595Z,79.19
2022-10-12T08:13:52.764Z,78.6
2022-10-12T08:15:53.886Z,77.9
2022-10-12T08:17:55.729Z,77.1
2022-10-12T08:19:56.881Z,76.8
2022-10-12T08:21:57.806Z,76.1
2022-10-12T08:23:59.924Z,75.8
2022-10-12T08:26:01.004Z,75.19
2022-10-12T08:28:02.330Z,74.3
2022-10-12T08:30:03.933Z,74
2022-10-12T08:32:05.344Z,73.69
2022-10-12T08:34:06.962Z,72.8
2022-10-12T08:36:08.583Z,72.1
2022-10-12T08:38:09.706Z,71.8
2022-10-12T08:40:11.223Z,70.69
2022-10-12T08:44:13.440Z,69.8
2022-10-12T08:46:14.911Z,68.5
2022-10-12T08:48:15.896Z,68.1
2022-10-12T08:50:18.296Z,67.9
2022-10-12T08:54:21.355Z,65.69
2022-10-12T08:56:23.142Z,65.19
2022-10-12T08:58:24.824Z,63.8
2022-10-12T09:00:26.672Z,62.8
2022-10-12T09:02:27.572Z,61.6
2022-10-12T09:04:28.777Z,59.5
2022-10-12T09:06:29.684Z,58.4
2022-10-12T09:08:30.810Z,56.3
2022-10-12T09:10:31.678Z,55
2022-10-12T09:14:34.243Z,50.6
2022-10-12T09:16:35.974Z,49.8
2022-10-12T09:18:40.555Z,48.8
2022-10-12T09:20:38.296Z,47.1
2022-10-12T09:24:40.957Z,43
2022-10-12T09:26:42.002Z,42.2
2022-10-12T09:30:44.832Z,40.5
2022-10-12T09:32:46.317Z,38.59
2022-10-12T09:34:47.704Z,36.9
2022-10-12T09:36:48.629Z,35.7
2022-10-12T09:42:52.494Z,32.09
2022-10-12T09:44:53.537Z,31.4
2022-10-12T09:46:54.381Z,30.3
2022-10-12T09:48:55.243Z,28.6
2022-10-12T09:50:56.379Z,27.6
2022-10-12T09:52:58.006Z,26.3
2022-10-12T09:55:00.639Z,25.3
2022-10-12T09:57:01.034Z,24.3
2022-10-12T09:59:02.806Z,22.6
2022-10-12T10:01:03.876Z,20.29
2022-10-12T10:05:06.975Z,17.6
2022-10-12T10:07:08.069Z,17.29
2022-10-12T10:09:53.270Z,16.79
2022-10-12T10:11:54.790Z,15.4
2022-10-12T10:13:56.766Z,14.4
2022-10-12T10:15:57.874Z,15.3
2022-10-12T10:17:59.784Z,13.8
2022-10-12T10:20:00.649Z,13.3
2022-10-12T10:22:01.764Z,12.8
2022-10-12T10:24:03.349Z,11.7
2022-10-12T10:26:04.894Z,10.8
2022-10-12T10:28:06.201Z,10.5
2022-10-12T10:30:17.433Z,11.1
2022-10-12T10:32:08.760Z,9.7
2022-10-12T10:36:10.822Z,9.6
2022-10-12T10:38:11.806Z,7.2
2022-10-12T10:40:13.092Z,7.2
2022-10-12T10:42:14.220Z,-28
2022-10-12T10:44:19.586Z,-27.9
2022-10-12T10:46:17.130Z,-28.2
2022-10-12T10:52:20.359Z,-28
2022-10-12T10:54:21.939Z,-28.3
2022-10-12T10:56:23.529Z,-27.9
2022-10-12T10:58:25.188Z,-27.9
2022-10-12T11:00:38.338Z,-28
2022-10-12T11:02:28.390Z,-27.9
2022-10-12T11:04:29.552Z,-28.1
2022-10-12T11:06:30.769Z,-27.9
2022-10-12T11:08:31.747Z,-27.8
2022-10-12T11:10:32.986Z,-27.9
2022-10-12T11:12:33.966Z,-27.7
2022-10-12T11:18:38.325Z,-27.8
2022-10-12T11:20:39.489Z,-28
2022-10-12T11:22:41.012Z,-27.6
2022-10-12T11:24:42.499Z,-27.6
2022-10-12T11:26:43.514Z,-27.4
2022-10-12T11:28:44.637Z,-27.6
2022-10-12T11:30:45.916Z,-27.6
2022-10-12T11:32:46.767Z,-27.8
2022-10-12T11:34:48.161Z,-27.7
2022-10-12T11:37:01.315Z,-27.5
2022-10-12T11:38:51.246Z,-27.5
2022-10-12T11:41:05.942Z,-27.9
2022-10-12T11:42:54.112Z,-27.4
2022-10-12T11:44:55.830Z,-27.8
2022-10-12T11:46:57.624Z,-27.7
2022-10-12T11:48:58.603Z,-27.7
2022-10-12T11:51:03.791Z,-27.7
2022-10-12T11:53:01.343Z,-27.6
2022-10-12T11:55:02.889Z,-27.9
2022-10-12T11:57:04.080Z,-28.2
2022-10-12T11:59:05.530Z,-27.8
2022-10-12T12:01:07.149Z,-27.8
2022-10-12T12:05:14.088Z,-27.7
2022-10-12T12:07:11.532Z,-28
2022-10-12T12:09:13.122Z,-28
2022-10-12T12:11:14.713Z,-27.9
2022-10-12T12:17:18.747Z,-28.2
2022-10-12T12:19:20.064Z,-28.1
2022-10-12T12:21:21.791Z,-28.2
2022-10-12T12:23:23.391Z,-28.4
2022-10-12T12:25:24.367Z,-28
2022-10-12T12:27:25.949Z,-28.4
2022-10-12T12:29:27.451Z,-28.2
2022-10-12T12:31:29.225Z,-27.9
2022-10-12T12:33:30.764Z,-28.2
2022-10-12T12:35:31.662Z,-27.9
2022-10-12T12:37:32.709Z,-27.9
2022-10-12T12:39:34.010Z,-28.3
2022-10-12T12:41:35.015Z,-28
2022-10-12T12:43:36.338Z,-28.2
2022-10-12T12:45:37.149Z,-28.7
2022-10-12T12:47:46.257Z,-28.4
2022-10-12T12:49:39.086Z,-28.4
2022-10-12T12:53:41.481Z,-28.2
2022-10-12T12:57:43.369Z,-28.2
2022-10-12T12:59:45.018Z,-28.1
2022-10-12T13:03:47.144Z,-28.5
2022-10-12T13:05:48.179Z,-28.2
2022-10-12T13:07:49.659Z,-28.5
2022-10-12T13:09:51.006Z,-28.5
2022-10-12T13:13:53.820Z,-28.5
2022-10-12T13:15:54.668Z,-28.3
2022-10-12T13:17:56.349Z,-28.3
2022-10-12T13:19:57.238Z,-28.4
2022-10-12T13:24:00.361Z,-28
2022-10-12T13:26:01.461Z,-28
2022-10-12T13:28:03.173Z,-28.2
2022-10-12T13:30:04.498Z,-28
2022-10-12T13:32:06.196Z,-27.9
2022-10-12T13:34:07.714Z,-28
2022-10-12T13:36:09.190Z,-28.5
2022-10-12T13:38:10.636Z,-28.4
2022-10-12T13:42:12.796Z,-28.4
2022-10-12T13:46:15.741Z,-28.3
2022-10-12T13:48:25.620Z,-28.2
2022-10-12T13:50:18.788Z,-28.3
2022-10-12T13:52:20.265Z,-27.9
2022-10-12T13:56:23.495Z,-27.9
2022-10-12T13:58:25.143Z,-28
2022-10-12T14:00:26.402Z,-28.4
2022-10-12T14:02:28.063Z,-28.4
2022-10-12T14:04:29.499Z,-27.9
2022-10-12T14:06:30.585Z,-28.2
2022-10-12T14:08:32.363Z,-27.9
2022-10-12T14:10:33.894Z,-28.2
2022-10-12T14:12:34.911Z,-28.2
2022-10-12T14:14:36.159Z,-28.1
2022-10-12T14:16:37.923Z,-28.3
2022-10-12T14:18:38.968Z,-28.2
2022-10-12T14:20:40.004Z,-28.3
2022-10-12T14:22:41.564Z,-28.2
2022-10-12T14:24:42.493Z,-28.2
2022-10-12T14:26:43.545Z,-28.3
2022-10-12T14:28:44.611Z,-27.9
2022-10-12T14:30:46.004Z,-28
2022-10-12T14:32:47.180Z,-28.2
2022-10-12T14:34:48.794Z,-28.4
2022-10-12T14:36:50.481Z,-28
2022-10-12T14:38:51.349Z,-27.9
2022-10-12T14:40:52.548Z,-28.4
2022-10-12T14:42:53.715Z,-28.4
2022-10-12T14:44:54.680Z,-28
2022-10-12T14:46:56.243Z,-28.5
2022-10-12T14:48:57.942Z,-28.6
2022-10-12T14:50:59.214Z,-28.4
2022-10-12T14:57:03.331Z,-28.3
2022-10-12T14:59:05.120Z,-28
2022-10-12T15:01:06.402Z,-28.2
2022-10-12T15:03:07.486Z,-28.4
2022-10-12T15:05:09.145Z,-28.3
2022-10-12T15:07:10.440Z,-28.2
2022-10-12T15:09:11.894Z,-28.2
2022-10-12T15:11:13.095Z,-28.5
2022-10-12T15:13:14.319Z,-28.4
2022-10-12T15:17:16.616Z,-28.2
2022-10-12T15:21:19.113Z,-28.3
2022-10-12T15:23:20.308Z,-26.7
2022-10-12T15:27:22.647Z,-28.3
2022-10-12T15:29:23.833Z,-28.3
2022-10-12T15:31:25.226Z,-28.3
2022-10-12T15:33:26.373Z,-28.2
2022-10-12T15:37:29.607Z,-28.2
2022-10-12T15:39:31.328Z,-28.1
2022-10-12T15:41:33.016Z,-28.2
2022-10-12T15:43:34.750Z,-27.9
2022-10-12T15:47:37.193Z,-28
2022-10-12T15:49:38.904Z,-28.3
2022-10-12T15:51:40.218Z,-27.9
2022-10-12T15:53:41.702Z,-27.8
2022-10-12T15:55:42.829Z,-27.9
2022-10-12T15:57:43.742Z,-27.8
2022-10-12T15:59:44.782Z,-28
2022-10-12T16:01:46.433Z,-28.2
2022-10-12T16:05:49.194Z,-27.7
2022-10-12T16:09:52.217Z,-28
2022-10-12T16:11:53.609Z,-28
2022-10-12T16:13:56.817Z,-27.9
2022-10-12T16:15:55.928Z,-28
2022-10-12T16:21:59.964Z,-27.9
2022-10-12T16:24:00.961Z,-28
2022-10-12T16:26:02.784Z,-27.8
2022-10-12T16:28:04.094Z,-27.7
2022-10-12T16:30:05.827Z,-27.9
2022-10-12T16:32:07.381Z,-27.7
2022-10-12T16:34:08.693Z,-27.9
2022-10-12T16:36:10.352Z,-27.9
2022-10-12T16:38:11.963Z,-28.1
2022-10-12T16:40:13.121Z,-27.9
2022-10-12T16:42:14.241Z,-27.8
2022-10-12T16:44:15.323Z,-27.9
2022-10-12T16:46:16.229Z,-27.6
2022-10-12T16:48:17.457Z,-27.9
2022-10-12T16:50:18.410Z,-27.8
2022-10-12T16:52:20.262Z,-28.1
2022-10-12T16:53:04.063Z,-28
2022-10-12T16:59:08.919Z,-27.6
2022-10-12T17:01:10.567Z,-27.7
2022-10-12T17:03:12.302Z,-27.9
2022-10-12T17:05:14.118Z,-27.5
2022-10-12T17:07:16.017Z,-27.7
2022-10-12T17:09:17.889Z,-27.8
2022-10-12T17:15:22.352Z,-27.9
2022-10-12T17:17:23.542Z,-27.8
2022-10-12T17:19:24.657Z,-27.8
2022-10-12T17:21:25.663Z,-27.9
2022-10-12T17:23:27.126Z,-27.7
2022-10-12T17:25:28.737Z,-27.7
2022-10-12T17:29:32.314Z,-27.8
2022-10-12T17:31:33.992Z,-27.8
2022-10-12T17:33:35.238Z,-27.7
2022-10-12T17:35:36.206Z,-27.6
2022-10-12T17:39:38.657Z,-27.8
2022-10-12T17:41:39.900Z,-27.9
2022-10-12T17:43:41.003Z,-27.9
2022-10-12T17:45:42.812Z,-27.7
2022-10-12T17:47:43.877Z,-28
2022-10-12T17:49:45.616Z,-27.9
2022-10-12T17:51:46.666Z,-27.6
2022-10-12T17:53:47.829Z,-27.8
2022-10-12T17:55:49.283Z,-27.8
2022-10-12T17:57:50.226Z,-27.9
2022-10-12T17:59:51.904Z,-27.9
2022-10-12T18:01:53.047Z,-27.5
2022-10-12T18:03:54.291Z,-27.8
2022-10-12T18:05:55.879Z,-27.9
2022-10-12T18:07:57.584Z,-28
2022-10-12T18:09:59.288Z,-27.9
2022-10-12T18:12:00.549Z,-28.2
2022-10-12T18:14:01.758Z,-27.9
2022-10-12T18:16:03.005Z,-27.7
2022-10-12T18:18:04.370Z,-28
2022-10-12T18:20:05.866Z,-27.9
2022-10-12T18:22:07.645Z,-27.8
2022-10-12T18:24:11.203Z,-27.5
2022-10-12T18:28:12.453Z,-28
2022-10-12T18:30:13.740Z,-27.7
2022-10-12T18:32:15.709Z,-27.8
2022-10-12T18:34:16.690Z,-27.7
2022-10-12T18:40:21.738Z,-27.8
2022-10-12T18:42:23.596Z,-28
2022-10-12T18:44:24.796Z,-27.7
2022-10-12T18:46:26.569Z,-27.8
2022-10-12T18:48:27.949Z,-27.8
2022-10-12T18:50:29.220Z,-27.7
2022-10-12T18:52:30.669Z,-27.7
2022-10-12T18:54:32.407Z,-27.7
2022-10-12T18:56:33.351Z,-28.1
2022-10-12T18:58:34.686Z,-28.2
2022-10-12T19:00:36.482Z,-27.8
2022-10-12T19:02:38.195Z,-27.5
2022-10-12T19:04:39.585Z,-27.9
2022-10-12T19:06:40.667Z,-28
2022-10-12T19:08:41.918Z,-27.8
2022-10-12T19:10:43.090Z,-27.6
2022-10-12T19:12:45.794Z,-27.8
2022-10-12T19:14:45.445Z,-28.1
2022-10-12T19:20:50.198Z,-27.8
2022-10-12T19:22:51.409Z,-28
2022-10-12T19:24:52.437Z,-27.9
2022-10-12T19:26:53.464Z,-28.2
2022-10-12T19:28:55.003Z,-27.8
2022-10-12T19:30:56.722Z,-27.8
2022-10-12T19:32:57.893Z,-27.7
2022-10-12T19:37:00.498Z,-27.7
2022-10-12T19:39:02.142Z,-27.9
2022-10-12T19:41:03.797Z,-27.6
2022-10-12T19:43:05.363Z,-27.7
2022-10-12T19:45:07.278Z,-27.8
2022-10-12T19:47:08.316Z,-27.8
2022-10-12T19:49:10.105Z,-28.1
2022-10-12T19:51:11.189Z,-28
2022-10-12T19:55:14.049Z,-27.8
2022-10-12T19:57:15.598Z,-28.2
2022-10-12T19:59:16.556Z,-27.9
2022-10-12T20:05:20.368Z,-27.9
2022-10-12T20:07:21.582Z,-27.8
2022-10-12T20:09:23.375Z,-27.5
2022-10-12T20:11:24.999Z,-27.7
2022-10-12T20:13:26.217Z,-27.7
2022-10-12T20:15:28.068Z,-27.9
2022-10-12T20:17:29.695Z,-27.8
2022-10-12T20:19:31.318Z,-27.9
2022-10-12T20:21:32.993Z,-27.9
2022-10-12T20:23:34.342Z,-27.7
2022-10-12T20:25:36.102Z,-27.7
2022-10-12T20:29:39.638Z,-27.8
2022-10-12T20:31:41.534Z,-27.9
2022-10-12T20:33:42.486Z,-27.9
2022-10-12T20:35:44.056Z,-27.9
2022-10-12T20:37:45.581Z,-27.7
2022-10-12T20:39:46.994Z,-27.8
2022-10-12T20:41:48.066Z,-27.8
2022-10-12T20:43:49.383Z,-27.9
2022-10-12T20:47:52.169Z,-27.8
2022-10-12T20:51:54.816Z,-27.8
2022-10-12T20:53:56.342Z,-27.9
2022-10-12T20:55:57.593Z,-27.7
2022-10-12T20:57:58.997Z,-28
2022-10-12T21:04:03.203Z,-27.6
2022-10-12T21:06:04.391Z,-27.8
2022-10-12T21:08:05.348Z,-27.9
2022-10-12T21:10:06.336Z,-27.9
2022-10-12T21:12:07.330Z,-28.2
2022-10-12T21:14:09.315Z,-28
2022-10-12T21:16:11.000Z,-27.8
2022-10-12T21:18:12.275Z,-28
2022-10-12T21:20:14.188Z,-27.8
2022-10-12T21:22:15.631Z,-27.9
2022-10-12T21:24:16.664Z,-27.8
2022-10-12T21:26:18.395Z,-27.7
2022-10-12T21:28:19.349Z,-27.9
2022-10-12T21:30:20.275Z,-27.5
2022-10-12T21:32:21.821Z,-27.5
2022-10-12T21:34:23.669Z,-27.5
2022-10-12T21:36:25.523Z,-27.8
2022-10-12T21:38:27.312Z,-27.7
2022-10-12T21:44:31.697Z,-27.9
2022-10-12T21:46:32.926Z,-27.9
2022-10-12T21:48:34.263Z,-27.7
2022-10-12T21:50:35.551Z,-28
2022-10-12T21:52:37.257Z,-27.6
2022-10-12T21:54:39.156Z,-28
2022-10-12T21:56:40.894Z,-27.9
2022-10-12T22:00:44.480Z,-27.9
2022-10-12T22:02:45.565Z,-27.6
2022-10-12T22:04:46.743Z,-28
2022-10-12T22:06:47.931Z,-28.2
2022-10-12T22:08:49.635Z,-27.8
2022-10-12T22:10:51.038Z,-28
2022-10-12T22:12:52.598Z,-27.7
2022-10-12T22:14:53.691Z,-27.8
2022-10-12T22:16:55.273Z,-27.9
2022-10-12T22:18:56.399Z,-27.7
2022-10-12T22:22:59.043Z,-27.9
2022-10-12T22:27:01.914Z,-27.8
2022-10-12T22:29:03.790Z,-27.8
2022-10-12T22:35:08.675Z,-27.8
2022-10-12T22:37:09.832Z,-27.7
2022-10-12T22:39:11.483Z,-27.9
2022-10-12T22:41:13.009Z,-27.9
2022-10-12T22:43:14.786Z,-27.8
2022-10-12T22:45:16.556Z,-27.7
2022-10-12T22:47:17.862Z,-27.4
2022-10-12T22:49:19.787Z,-27.9
2022-10-12T22:51:20.875Z,-27.9
2022-10-12T22:55:24.549Z,-28
2022-10-12T22:57:26.390Z,-27.6
2022-10-12T22:59:28.070Z,-28.2
2022-10-12T23:01:29.652Z,-27.9
2022-10-12T23:03:31.372Z,-27.9
2022-10-12T23:05:32.792Z,-27.7
2022-10-12T23:07:33.791Z,-28
2022-10-12T23:09:35.702Z,-27.7
2022-10-12T23:11:37.131Z,-27.7
2022-10-12T23:17:41.964Z,-27.6
2022-10-12T23:19:43.492Z,-27.7
2022-10-12T23:21:45.229Z,-27.8
2022-10-12T23:23:46.677Z,-27.9
2022-10-12T23:25:47.740Z,-27.8
2022-10-12T23:27:49.233Z,-27.9
2022-10-12T23:31:51.578Z,-27.8
2022-10-12T23:33:53.493Z,-27.6
2022-10-12T23:37:56.738Z,-27.7
2022-10-12T23:38:40.642Z,-27.9
2022-10-12T23:42:44.028Z,-27.8
2022-10-12T23:44:45.124Z,-27.6
2022-10-12T23:46:46.484Z,-27.8
2022-10-12T23:48:48.017Z,-28
2022-10-12T23:52:51.793Z,-28.2
2022-10-12T23:54:52.915Z,-27.9
2022-10-12T23:56:54.122Z,-27.8
2022-10-12T23:58:55.264Z,-27.8
